createdAt,value
2018-08-20T00:02:03.089Z,1.00
2018-08-20T00:04:35.095Z,1.00
2018-08-20T00:07:02.819Z,1.00
2018-08-20T00:09:36.768Z,1.00
2018-08-20T00:12:05.643Z,1.00
2018-08-20T00:14:33.610Z,1.00
2018-08-20T00:17:01.286Z,1.00
2018-08-20T00:19:28.726Z,1.00
2018-08-20T00:21:56.177Z,1.00
2018-08-20T00:24:23.616Z,1.30
2018-08-20T00:26:51.081Z,1.00
2018-08-20T00:29:18.509Z,1.00
2018-08-20T00:31:45.955Z,1.70
2018-08-20T00:34:13.480Z,1.00
2018-08-20T00:36:43.306Z,1.00
2018-08-20T00:39:10.672Z,1.00
2018-08-20T00:41:38.045Z,1.30
2018-08-20T00:44:10.212Z,1.40
2018-08-20T00:46:37.594Z,2.00
2018-08-20T00:49:05.036Z,3.00
2018-08-20T00:51:33.348Z,2.60
2018-08-20T00:54:00.703Z,2.90
2018-08-20T00:56:28.083Z,3.60
2018-08-20T00:58:55.448Z,4.10
2018-08-20T01:01:22.825Z,5.40
2018-08-20T01:06:46.982Z,6.20
2018-08-20T01:09:14.392Z,5.50
2018-08-20T01:11:41.812Z,5.50
2018-08-20T01:14:09.794Z,6.30
2018-08-20T01:16:37.249Z,5.20
2018-08-20T01:19:04.775Z,5.80
2018-08-20T01:21:32.199Z,6.80
2018-08-20T01:23:59.655Z,7.10
2018-08-20T01:26:27.044Z,6.80
2018-08-20T01:28:54.427Z,7.70
2018-08-20T01:31:21.844Z,7.20
2018-08-20T01:33:49.252Z,8.10
2018-08-20T01:36:16.624Z,9.00
2018-08-20T01:38:43.998Z,9.30
2018-08-20T01:41:11.364Z,9.50
2018-08-20T01:43:39.276Z,9.60
2018-08-20T01:46:06.837Z,9.30
2018-08-20T01:48:34.224Z,10.20
2018-08-20T01:51:01.620Z,9.50
2018-08-20T01:53:29.005Z,9.90
2018-08-20T01:55:56.383Z,9.30
2018-08-20T01:58:23.771Z,9.40
2018-08-20T02:00:51.178Z,9.40
2018-08-20T02:03:18.684Z,9.40
2018-08-20T02:05:46.066Z,9.40
2018-08-20T02:08:13.488Z,9.40
2018-08-20T02:10:40.940Z,9.60
2018-08-20T02:13:08.344Z,9.40
2018-08-20T02:15:36.929Z,9.30
2018-08-20T02:18:05.403Z,9.30
2018-08-20T02:20:32.772Z,9.60
2018-08-20T02:23:00.140Z,9.50
2018-08-20T02:25:27.575Z,9.30
2018-08-20T02:27:55.004Z,9.30
2018-08-20T02:30:22.512Z,8.90
2018-08-20T02:32:49.995Z,8.40
2018-08-20T02:35:17.418Z,9.40
2018-08-20T02:37:45.856Z,8.90
2018-08-20T02:40:14.065Z,9.40
2018-08-20T02:42:41.517Z,9.10
2018-08-20T02:45:14.138Z,9.30
2018-08-20T02:47:42.183Z,9.40
2018-08-20T02:50:10.376Z,9.40
2018-08-20T02:52:37.876Z,9.40
2018-08-20T02:55:05.649Z,9.40
2018-08-20T02:57:33.204Z,9.20
2018-08-20T03:00:00.630Z,9.30
2018-08-20T03:02:28.936Z,9.60
2018-08-20T03:04:56.332Z,9.30
2018-08-20T03:07:23.789Z,9.80
2018-08-20T03:09:51.233Z,9.90
2018-08-20T03:12:18.715Z,9.70
2018-08-20T03:14:46.147Z,9.40
2018-08-20T03:17:13.564Z,9.40
2018-08-20T03:19:40.995Z,10.50
2018-08-20T03:22:08.417Z,10.40
2018-08-20T03:24:35.932Z,10.70
2018-08-20T03:27:03.399Z,11.10
2018-08-20T03:29:30.832Z,10.80
2018-08-20T03:31:58.244Z,11.00
2018-08-20T03:34:25.689Z,11.70
2018-08-20T03:36:53.089Z,12.50
2018-08-20T03:39:20.560Z,13.00
2018-08-20T03:41:48.020Z,13.80
2018-08-20T03:44:15.447Z,14.70
2018-08-20T03:46:42.870Z,14.90
2018-08-20T03:49:10.308Z,16.00
2018-08-20T03:51:37.748Z,16.00
2018-08-20T03:54:05.230Z,16.50
2018-08-20T03:56:32.653Z,16.50
2018-08-20T03:59:00.063Z,16.50
2018-08-20T04:01:27.532Z,16.00
2018-08-20T04:03:55.178Z,16.40
2018-08-20T04:06:22.653Z,17.00
2018-08-20T04:08:50.110Z,17.10
2018-08-20T04:11:17.528Z,17.30
2018-08-20T04:13:44.904Z,17.80
2018-08-20T04:16:12.284Z,18.70
2018-08-20T04:18:39.884Z,18.30
2018-08-20T04:21:07.325Z,18.70
2018-08-20T04:23:34.799Z,18.40
2018-08-20T04:26:02.240Z,17.90
2018-08-20T04:28:29.687Z,17.40
2018-08-20T04:30:57.145Z,18.20
2018-08-20T04:33:24.565Z,17.30
2018-08-20T04:35:52.064Z,17.90
2018-08-20T04:38:19.552Z,18.20
2018-08-20T04:40:46.984Z,18.50
2018-08-20T04:43:14.391Z,19.20
2018-08-20T04:45:41.865Z,19.10
2018-08-20T04:48:09.288Z,19.10
2018-08-20T04:50:36.810Z,19.10
2018-08-20T04:53:04.168Z,19.00
2018-08-20T04:55:31.592Z,20.20
2018-08-20T04:57:59.028Z,20.90
2018-08-20T05:00:26.452Z,21.30
2018-08-20T05:02:53.856Z,21.60
2018-08-20T05:05:21.393Z,21.70
2018-08-20T05:07:49.694Z,21.30
2018-08-20T05:10:17.126Z,20.80
2018-08-20T05:12:44.571Z,21.10
2018-08-20T05:15:11.984Z,20.90
2018-08-20T05:17:39.419Z,20.50
2018-08-20T05:20:07.329Z,20.90
2018-08-20T05:22:34.941Z,22.30
2018-08-20T05:25:02.373Z,22.30
2018-08-20T05:27:29.746Z,22.50
2018-08-20T05:29:57.128Z,23.40
2018-08-20T05:32:24.531Z,23.40
2018-08-20T05:34:51.905Z,23.80
2018-08-20T05:37:19.324Z,23.00
2018-08-20T05:39:46.683Z,22.60
2018-08-20T05:42:14.084Z,22.60
2018-08-20T05:44:41.498Z,23.50
2018-08-20T05:47:08.891Z,23.10
2018-08-20T05:49:36.304Z,23.30
2018-08-20T05:52:03.852Z,22.70
2018-08-20T05:54:31.243Z,23.20
2018-08-20T05:56:58.591Z,23.10
2018-08-20T05:59:25.947Z,23.80
2018-08-20T06:01:53.312Z,23.00
2018-08-20T06:04:20.756Z,23.00
2018-08-20T06:06:48.984Z,22.90
2018-08-20T06:09:16.360Z,23.60
2018-08-20T06:11:43.748Z,24.10
2018-08-20T06:14:11.108Z,23.50
2018-08-20T06:16:38.499Z,24.00
2018-08-20T06:19:05.900Z,23.80
2018-08-20T06:21:33.462Z,24.30
2018-08-20T06:24:00.816Z,23.90
2018-08-20T06:26:28.280Z,24.00
2018-08-20T06:28:56.054Z,24.20
2018-08-20T06:31:23.760Z,25.20
2018-08-20T06:33:51.361Z,26.60
2018-08-20T06:36:18.903Z,28.60
2018-08-20T06:38:46.380Z,30.50
2018-08-20T06:41:14.652Z,31.80
2018-08-20T06:43:42.075Z,33.30
2018-08-20T06:46:09.566Z,36.60
2018-08-20T06:48:37.035Z,39.00
2018-08-20T06:51:04.429Z,40.90
2018-08-20T06:53:31.852Z,43.90
2018-08-20T06:55:59.277Z,46.90
2018-08-20T06:58:26.805Z,46.60
2018-08-20T07:00:54.310Z,48.30
2018-08-20T07:03:21.720Z,48.90
2018-08-20T07:05:49.140Z,50.90
2018-08-20T07:08:16.555Z,51.50
2018-08-20T07:10:46.808Z,52.40
2018-08-20T07:13:36.088Z,55.10
2018-08-20T07:16:04.512Z,56.00
2018-08-20T07:18:31.984Z,59.90
2018-08-20T07:21:00.476Z,60.30
2018-08-20T07:23:28.499Z,61.90
2018-08-20T07:25:55.980Z,61.80
2018-08-20T07:28:23.468Z,62.90
2018-08-20T07:30:50.938Z,63.70
2018-08-20T07:33:19.017Z,63.80
2018-08-20T07:35:46.508Z,64.30
2018-08-20T07:38:14.051Z,63.90
2018-08-20T07:40:41.515Z,64.10
2018-08-20T07:43:08.971Z,63.00
2018-08-20T07:45:36.422Z,64.00
2018-08-20T07:48:04.042Z,63.10
2018-08-20T07:50:31.509Z,64.00
2018-08-20T07:52:59.028Z,63.70
2018-08-20T07:55:26.620Z,63.40
2018-08-20T07:57:54.079Z,63.20
2018-08-20T08:00:21.544Z,64.30
2018-08-20T08:02:49.050Z,64.50
2018-08-20T08:05:16.483Z,64.90
2018-08-20T08:07:43.903Z,64.20
2018-08-20T08:10:13.200Z,64.40
2018-08-20T08:12:40.769Z,64.10
2018-08-20T08:15:09.889Z,65.20
2018-08-20T08:17:37.444Z,66.20
2018-08-20T08:20:06.432Z,65.60
2018-08-20T08:22:33.863Z,64.90
2018-08-20T08:25:01.332Z,64.60
2018-08-20T08:27:28.756Z,62.50
2018-08-20T08:29:56.235Z,62.30
2018-08-20T08:32:23.744Z,61.80
2018-08-20T08:34:51.816Z,62.00
2018-08-20T08:37:20.223Z,63.50
2018-08-20T08:39:47.683Z,62.10
2018-08-20T08:42:15.140Z,63.20
2018-08-20T08:44:43.769Z,63.50
2018-08-20T08:47:11.227Z,64.30
2018-08-20T08:49:38.668Z,64.30
2018-08-20T08:52:06.132Z,65.00
2018-08-20T08:54:33.600Z,65.40
2018-08-20T08:57:01.684Z,65.30
2018-08-20T08:59:29.129Z,66.60
2018-08-20T09:01:56.644Z,67.60
2018-08-20T09:04:24.158Z,68.30
2018-08-20T09:06:51.536Z,69.20
2018-08-20T09:09:18.976Z,69.50
2018-08-20T09:11:46.421Z,70.40
2018-08-20T09:14:13.839Z,69.90
2018-08-20T09:16:41.477Z,69.00
2018-08-20T09:19:08.907Z,68.20
2018-08-20T09:21:36.328Z,67.80
2018-08-20T09:24:04.400Z,67.70
2018-08-20T09:26:31.889Z,68.50
2018-08-20T09:28:59.277Z,68.00
2018-08-20T09:31:26.661Z,68.70
2018-08-20T09:33:54.188Z,69.20
2018-08-20T09:36:21.582Z,69.30
2018-08-20T09:38:49.248Z,68.40
2018-08-20T09:41:16.626Z,68.60
2018-08-20T09:43:43.995Z,67.60
2018-08-20T09:46:11.392Z,66.90
2018-08-20T09:48:38.757Z,66.00
2018-08-20T09:51:06.169Z,66.30
2018-08-20T09:53:33.772Z,64.80
2018-08-20T09:56:01.184Z,65.30
2018-08-20T09:58:28.568Z,65.90
2018-08-20T10:00:56.210Z,66.40
2018-08-20T10:03:23.589Z,65.60
2018-08-20T10:05:50.976Z,65.10
2018-08-20T10:08:18.332Z,65.60
2018-08-20T10:10:45.694Z,65.30
2018-08-20T10:13:13.065Z,64.70
2018-08-20T10:15:40.432Z,64.00
2018-08-20T10:18:07.872Z,63.50
2018-08-20T10:20:35.251Z,62.10
2018-08-20T10:23:02.655Z,62.00
2018-08-20T10:25:30.067Z,61.20
2018-08-20T10:27:57.641Z,61.40
2018-08-20T10:30:25.083Z,60.00
2018-08-20T10:32:52.503Z,59.50
2018-08-20T10:35:19.936Z,58.70
2018-08-20T10:37:47.425Z,57.70
2018-08-20T10:40:14.776Z,55.90
2018-08-20T10:42:42.193Z,55.20
2018-08-20T10:45:18.137Z,54.70
2018-08-20T10:47:46.778Z,51.30
2018-08-20T10:50:15.562Z,51.20
2018-08-20T10:52:44.332Z,52.30
2018-08-20T10:55:11.857Z,51.30
2018-08-20T10:57:39.348Z,47.50
2018-08-20T11:00:07.073Z,47.90
2018-08-20T11:02:34.472Z,46.80
2018-08-20T11:05:01.906Z,46.20
2018-08-20T11:07:33.486Z,44.50
2018-08-20T11:10:02.185Z,44.40
2018-08-20T11:12:29.624Z,40.30
2018-08-20T11:14:57.132Z,38.00
2018-08-20T11:17:24.657Z,37.50
2018-08-20T11:19:52.092Z,36.70
2018-08-20T11:22:20.737Z,33.80
2018-08-20T11:24:48.096Z,32.70
2018-08-20T11:27:15.508Z,32.60
2018-08-20T11:29:42.964Z,31.20
2018-08-20T11:32:10.349Z,31.10
2018-08-20T11:34:37.746Z,31.30
2018-08-20T11:37:08.156Z,31.50
2018-08-20T11:39:35.536Z,29.60
2018-08-20T11:42:02.913Z,28.70
2018-08-20T11:44:30.276Z,27.90
2018-08-20T11:46:57.693Z,26.10
2018-08-20T11:49:25.179Z,25.80
2018-08-20T11:51:52.573Z,24.70
2018-08-20T11:54:19.934Z,24.20
2018-08-20T11:56:47.375Z,23.80
2018-08-20T11:59:14.737Z,22.80
2018-08-20T12:01:42.111Z,22.80
2018-08-20T12:04:09.582Z,22.50
2018-08-20T12:06:36.932Z,22.80
2018-08-20T12:09:05.241Z,23.10
2018-08-20T12:11:32.608Z,22.50
2018-08-20T12:13:59.985Z,21.40
2018-08-20T12:16:27.337Z,21.70
2018-08-20T12:18:54.767Z,22.60
2018-08-20T12:21:22.175Z,22.30
2018-08-20T12:23:49.559Z,22.30
2018-08-20T12:26:16.952Z,21.40
2018-08-20T12:28:44.372Z,21.40
2018-08-20T12:31:11.782Z,21.40
2018-08-20T12:33:39.124Z,21.40
2018-08-20T12:36:06.497Z,22.00
2018-08-20T12:38:34.012Z,23.40
2018-08-20T12:41:01.344Z,22.80
2018-08-20T12:43:28.700Z,23.20
2018-08-20T12:45:56.092Z,26.00
2018-08-20T12:48:23.525Z,27.30
2018-08-20T12:50:50.918Z,28.00
2018-08-20T12:53:18.296Z,27.00
2018-08-20T12:55:45.688Z,26.60
2018-08-20T12:58:13.064Z,28.20
2018-08-20T13:00:40.554Z,28.80
2018-08-20T13:03:07.790Z,28.50
2018-08-20T13:05:35.709Z,28.00
2018-08-20T13:08:03.117Z,28.10
2018-08-20T13:10:30.507Z,29.70
2018-08-20T13:12:57.869Z,27.40
2018-08-20T13:15:25.262Z,28.30
2018-08-20T13:17:52.624Z,29.30
2018-08-20T13:20:20.008Z,28.60
2018-08-20T13:22:47.407Z,28.20
2018-08-20T13:25:14.848Z,27.80
2018-08-20T13:27:42.293Z,28.30
2018-08-20T13:30:09.878Z,28.40
2018-08-20T13:32:37.438Z,27.50
2018-08-20T13:35:05.073Z,25.80
2018-08-20T13:37:32.512Z,24.20
2018-08-20T13:39:59.927Z,23.90
2018-08-20T13:42:32.128Z,22.10
2018-08-20T13:45:00.390Z,21.50
2018-08-20T13:47:28.406Z,20.70
2018-08-20T13:50:01.740Z,19.70
2018-08-20T13:52:29.139Z,18.60
2018-08-20T13:55:00.897Z,18.10
2018-08-20T13:57:32.896Z,17.90
2018-08-20T14:00:00.309Z,19.40
2018-08-20T14:02:27.811Z,20.00
2018-08-20T14:04:55.264Z,19.60
2018-08-20T14:07:22.720Z,21.20
2018-08-20T14:09:50.157Z,20.20
2018-08-20T14:12:17.573Z,20.90
2018-08-20T14:14:46.216Z,21.20
2018-08-20T14:17:13.628Z,22.20
2018-08-20T14:19:41.056Z,23.30
2018-08-20T14:22:08.468Z,20.40
2018-08-20T14:24:35.886Z,21.10
2018-08-20T14:27:03.233Z,20.80
2018-08-20T14:29:30.620Z,21.10
2018-08-20T14:31:57.979Z,21.10
2018-08-20T14:34:25.519Z,21.10
2018-08-20T14:36:53.025Z,21.10
2018-08-20T14:39:20.367Z,21.30
2018-08-20T14:41:47.752Z,19.50
2018-08-20T14:44:15.140Z,19.40
2018-08-20T14:46:42.536Z,18.90
2018-08-20T14:49:09.925Z,19.30
2018-08-20T14:51:37.285Z,19.00
2018-08-20T14:54:04.704Z,18.90
2018-08-20T14:56:32.097Z,19.60
2018-08-20T14:58:59.472Z,19.80
2018-08-20T15:01:26.841Z,19.60
2018-08-20T15:03:54.249Z,20.60
2018-08-20T15:06:21.657Z,18.60
2018-08-20T15:08:49.030Z,19.10
2018-08-20T15:11:16.417Z,19.70
2018-08-20T15:13:43.789Z,19.70
2018-08-20T15:16:11.192Z,19.80
2018-08-20T15:18:38.589Z,18.70
2018-08-20T15:21:05.976Z,19.80
2018-08-20T15:23:33.341Z,17.50
2018-08-20T15:26:00.697Z,16.30
2018-08-20T15:28:28.122Z,14.50
2018-08-20T15:30:55.524Z,15.70
2018-08-20T15:33:22.919Z,15.10
2018-08-20T15:35:50.305Z,14.00
2018-08-20T15:38:17.661Z,14.70
2018-08-20T15:40:45.069Z,13.10
2018-08-20T15:43:12.437Z,14.10
2018-08-20T15:45:39.849Z,13.60
2018-08-20T15:48:07.253Z,13.70
2018-08-20T15:50:34.628Z,13.00
2018-08-20T15:53:02.057Z,13.40
2018-08-20T15:55:29.540Z,12.10
2018-08-20T15:57:56.950Z,11.60
2018-08-20T16:00:24.360Z,11.20
2018-08-20T16:02:51.795Z,11.10
2018-08-20T16:05:19.190Z,11.20
2018-08-20T16:07:46.593Z,11.30
2018-08-20T16:10:13.964Z,11.10
2018-08-20T16:12:41.379Z,11.20
2018-08-20T16:15:09.394Z,11.20
2018-08-20T16:17:36.818Z,11.20
2018-08-20T16:20:04.336Z,9.90
2018-08-20T16:22:31.693Z,10.10
2018-08-20T16:24:59.090Z,10.00
2018-08-20T16:27:26.517Z,10.20
2018-08-20T16:29:53.991Z,9.70
2018-08-20T16:32:21.413Z,9.10
2018-08-20T16:34:48.779Z,8.10
2018-08-20T16:37:16.220Z,8.70
2018-08-20T16:39:43.638Z,9.20
2018-08-20T16:42:10.959Z,8.70
2018-08-20T16:44:38.364Z,8.30
2018-08-20T16:47:05.733Z,8.10
2018-08-20T16:49:33.101Z,9.00
2018-08-20T16:52:00.538Z,7.70
2018-08-20T16:54:28.073Z,7.40
2018-08-20T16:56:55.482Z,6.60
2018-08-20T16:59:22.885Z,7.90
2018-08-20T17:01:50.252Z,7.80
2018-08-20T17:04:43.472Z,7.70
2018-08-20T17:07:10.888Z,7.70
2018-08-20T17:09:38.264Z,7.00
2018-08-20T17:12:05.636Z,7.20
2018-08-20T17:14:33.026Z,7.30
2018-08-20T17:17:00.411Z,7.00
2018-08-20T17:19:28.288Z,6.50
2018-08-20T17:21:55.723Z,7.10
2018-08-20T17:24:40.485Z,5.90
2018-08-20T17:29:43.242Z,5.80
2018-08-20T17:32:10.865Z,5.70
2018-08-20T17:34:42.026Z,6.30
2018-08-20T17:37:10.237Z,6.50
2018-08-20T17:39:54.986Z,6.60
2018-08-20T17:42:22.734Z,7.40
2018-08-20T17:44:50.401Z,4.70
2018-08-20T17:47:21.809Z,5.10
2018-08-20T17:49:50.398Z,5.10
2018-08-20T17:52:18.076Z,4.40
2018-08-20T17:54:45.788Z,3.70
2018-08-20T17:57:16.337Z,3.30
2018-08-20T17:59:43.999Z,2.60
2018-08-20T18:02:14.281Z,3.10
2018-08-20T18:04:42.004Z,3.80
2018-08-20T18:07:09.577Z,3.30
2018-08-20T18:09:37.291Z,3.60
2018-08-20T18:12:04.838Z,3.70
2018-08-20T18:14:32.443Z,3.80
2018-08-20T18:17:00.205Z,4.30
2018-08-20T18:19:29.825Z,3.50
2018-08-20T18:21:57.540Z,3.70
2018-08-20T18:24:25.102Z,3.60
2018-08-20T18:26:53.703Z,3.00
2018-08-20T18:29:21.282Z,3.40
2018-08-20T18:31:51.169Z,3.20
2018-08-20T18:34:18.705Z,3.80
2018-08-20T18:36:46.264Z,4.00
2018-08-20T18:39:13.916Z,4.10
2018-08-20T18:41:56.880Z,3.50
2018-08-20T18:44:24.450Z,4.40
2018-08-20T18:46:52.441Z,4.40
2018-08-20T18:49:23.204Z,4.10
2018-08-20T18:51:57.294Z,4.60
2018-08-20T18:54:25.673Z,4.80
2018-08-20T18:56:59.883Z,5.00
2018-08-20T18:59:28.803Z,6.10
2018-08-20T19:01:56.309Z,4.60
2018-08-20T19:04:23.829Z,3.60
2018-08-20T19:06:55.958Z,4.70
2018-08-20T19:09:23.442Z,5.30
2018-08-20T19:11:50.994Z,6.10
2018-08-20T19:14:18.612Z,5.80
2018-08-20T19:16:48.406Z,6.00
2018-08-20T19:19:15.946Z,5.70
2018-08-20T19:21:43.450Z,6.40
2018-08-20T19:26:53.625Z,6.60
2018-08-20T19:29:26.244Z,7.00
2018-08-20T19:31:53.857Z,7.10
2018-08-20T19:34:21.343Z,6.80
2018-08-20T19:36:49.178Z,7.20
2018-08-20T19:39:16.790Z,6.80
2018-08-20T19:41:44.349Z,6.70
2018-08-20T19:44:12.007Z,7.00
2018-08-20T19:46:39.534Z,7.40
2018-08-20T19:49:14.341Z,7.80
2018-08-20T19:51:46.476Z,7.90
2018-08-20T19:54:15.083Z,8.00
2018-08-20T19:56:42.826Z,9.00
2018-08-20T19:59:10.963Z,9.30
2018-08-20T20:01:38.673Z,9.80
2018-08-20T20:04:06.583Z,9.40
2018-08-20T20:06:34.189Z,9.70
2018-08-20T20:09:06.970Z,9.60
2018-08-20T20:11:39.299Z,9.60
2018-08-20T20:14:06.858Z,9.70
2018-08-20T20:16:40.353Z,9.70
2018-08-20T20:19:11.023Z,10.10
2018-08-20T20:21:38.550Z,10.10
2018-08-20T20:24:06.573Z,11.00
2018-08-20T20:26:34.173Z,10.90
2018-08-20T20:29:02.158Z,10.30
2018-08-20T20:31:31.367Z,9.60
2018-08-20T20:33:59.070Z,9.60
2018-08-20T20:36:28.084Z,9.50
2018-08-20T20:38:56.842Z,9.50
2018-08-20T20:41:24.513Z,10.00
2018-08-20T20:43:52.425Z,10.10
2018-08-20T20:46:20.133Z,10.70
2018-08-20T20:48:47.637Z,11.00
2018-08-20T20:51:15.306Z,11.20
2018-08-20T20:53:42.889Z,11.20
2018-08-20T20:56:10.484Z,11.60
2018-08-20T20:58:38.861Z,11.60
2018-08-20T21:01:08.043Z,12.30
2018-08-20T21:03:36.085Z,12.40
2018-08-20T21:06:04.582Z,12.20
2018-08-20T21:08:38.887Z,12.80
2018-08-20T21:11:07.506Z,12.90
2018-08-20T21:13:35.084Z,12.10
2018-08-20T21:16:05.225Z,12.20
2018-08-20T21:18:34.192Z,12.60
2018-08-20T21:21:01.764Z,12.50
2018-08-20T21:23:29.514Z,12.70
2018-08-20T21:25:57.073Z,12.90
2018-08-20T21:28:29.446Z,12.60
2018-08-20T21:30:56.967Z,13.00
2018-08-20T21:33:24.458Z,13.00
2018-08-20T21:35:51.940Z,12.70
2018-08-20T21:38:19.450Z,13.70
2018-08-20T21:40:47.026Z,13.90
2018-08-20T21:43:14.670Z,13.70
2018-08-20T21:45:42.189Z,13.40
2018-08-20T21:48:09.816Z,13.70
2018-08-20T21:50:37.274Z,13.70
2018-08-20T21:53:04.957Z,13.90
2018-08-20T21:55:32.378Z,13.70
2018-08-20T21:58:00.047Z,14.40
2018-08-20T22:00:30.024Z,14.70
2018-08-20T22:03:00.329Z,14.40
2018-08-20T22:05:28.444Z,15.00
2018-08-20T22:07:59.701Z,15.60
2018-08-20T22:10:28.798Z,15.10
2018-08-20T22:12:56.442Z,14.90
2018-08-20T22:15:24.006Z,15.20
2018-08-20T22:17:51.488Z,15.50
2018-08-20T22:20:21.062Z,15.90
2018-08-20T22:22:48.640Z,16.40
2018-08-20T22:25:16.218Z,16.90
2018-08-20T22:27:49.516Z,17.40
2018-08-20T22:30:17.112Z,17.20
2018-08-20T22:32:45.071Z,18.00
2018-08-20T22:35:18.757Z,17.50
2018-08-20T22:37:48.997Z,17.50
2018-08-20T22:40:17.855Z,18.00
2018-08-20T22:42:56.150Z,16.80
2018-08-20T22:45:23.649Z,19.00
2018-08-20T22:47:51.692Z,16.90
2018-08-20T22:50:19.166Z,18.80
2018-08-20T22:52:48.162Z,17.10
2018-08-20T22:55:17.904Z,18.30
2018-08-20T22:57:57.402Z,18.90
2018-08-20T23:00:25.756Z,17.70
2018-08-20T23:02:54.363Z,19.20
2018-08-20T23:05:27.168Z,18.80
2018-08-20T23:07:55.505Z,18.70
2018-08-20T23:10:23.016Z,18.80
2018-08-20T23:12:50.494Z,18.10
2018-08-20T23:15:17.970Z,18.60
2018-08-20T23:17:45.561Z,19.80
2018-08-20T23:20:19.524Z,19.50
2018-08-20T23:22:47.306Z,19.10
2018-08-20T23:25:15.282Z,18.50
2018-08-20T23:27:42.839Z,19.70
2018-08-20T23:30:11.714Z,18.50
2018-08-20T23:32:39.262Z,18.40
2018-08-20T23:35:06.842Z,20.70
2018-08-20T23:37:34.897Z,21.30
2018-08-20T23:40:05.198Z,20.30
2018-08-20T23:42:35.461Z,21.40
2018-08-20T23:45:03.406Z,20.70
2018-08-20T23:47:30.979Z,21.00
2018-08-20T23:49:58.583Z,20.00
2018-08-20T23:52:26.269Z,21.70
2018-08-20T23:54:53.814Z,19.90
2018-08-20T23:57:21.454Z,19.80
2018-08-20T23:59:49.034Z,20.50
